sensor_id;sensor_type;location;lat;lon;timestamp;temperature;humidity
16511;DHT22;8368;48.772;8.754;2023-11-18T00:00:26;3.60;99.90
16511;DHT22;8368;48.772;8.754;2023-11-18T00:02:52;3.60;99.90
16511;DHT22;8368;48.772;8.754;2023-11-18T00:05:18;3.70;99.90
16511;DHT22;8368;48.772;8.754;2023-11-18T00:07:43;3.70;99.90
16511;DHT22;8368;48.772;8.754;2023-11-18T00:10:09;3.70;99.90
16511;DHT22;8368;48.772;8.754;2023-11-18T00:12:36;3.70;99.90
16511;DHT22;8368;48.772;8.754;2023-11-18T00:15:04;3.80;99.90
16511;DHT22;8368;48.772;8.754;2023-11-18T00:17:31;3.80;99.90
16511;DHT22;8368;48.772;8.754;2023-11-18T00:19:57;3.80;99.90
16511;DHT22;8368;48.772;8.754;2023-11-18T00:22:23;3.80;99.90
16511;DHT22;8368;48.772;8.754;2023-11-18T00:24:48;3.90;99.90
16511;DHT22;8368;48.772;8.754;2023-11-18T00:27:15;3.90;99.90
16511;DHT22;8368;48.772;8.754;2023-11-18T00:29:41;3.90;99.90
16511;DHT22;8368;48.772;8.754;2023-11-18T00:32:06;3.90;99.90
16511;DHT22;8368;48.772;8.754;2023-11-18T00:34:33;3.90;99.90
16511;DHT22;8368;48.772;8.754;2023-11-18T00:36:58;3.80;99.90
16511;DHT22;8368;48.772;8.754;2023-11-18T00:39:24;3.80;99.90
16511;DHT22;8368;48.772;8.754;2023-11-18T00:41:50;3.80;99.90
16511;DHT22;8368;48.772;8.754;2023-11-18T00:44:15;3.80;99.90
16511;DHT22;8368;48.772;8.754;2023-11-18T00:46:41;3.80;99.90
16511;DHT22;8368;48.772;8.754;2023-11-18T00:49:07;3.80;99.90
16511;DHT22;8368;48.772;8.754;2023-11-18T00:51:33;3.80;99.90
16511;DHT22;8368;48.772;8.754;2023-11-18T00:53:58;3.80;99.90
16511;DHT22;8368;48.772;8.754;2023-11-18T00:56:26;3.80;99.90
16511;DHT22;8368;48.772;8.754;2023-11-18T00:58:52;3.80;99.90
16511;DHT22;8368;48.772;8.754;2023-11-18T01:01:18;3.80;99.90
16511;DHT22;8368;48.772;8.754;2023-11-18T01:03:44;3.80;99.90
16511;DHT22;8368;48.772;8.754;2023-11-18T01:06:10;3.80;99.90
16511;DHT22;8368;48.772;8.754;2023-11-18T01:08:36;3.80;99.90
16511;DHT22;8368;48.772;8.754;2023-11-18T01:11:01;3.80;99.90
16511;DHT22;8368;48.772;8.754;2023-11-18T01:13:27;3.90;99.90
16511;DHT22;8368;48.772;8.754;2023-11-18T01:15:52;3.90;99.90
16511;DHT22;8368;48.772;8.754;2023-11-18T01:18:18;3.90;99.90
16511;DHT22;8368;48.772;8.754;2023-11-18T01:20:43;4.00;99.90
16511;DHT22;8368;48.772;8.754;2023-11-18T01:23:09;4.00;99.90
16511;DHT22;8368;48.772;8.754;2023-11-18T01:25:34;4.00;99.90
16511;DHT22;8368;48.772;8.754;2023-11-18T01:28:00;4.00;99.90
16511;DHT22;8368;48.772;8.754;2023-11-18T01:30:26;4.00;99.90
16511;DHT22;8368;48.772;8.754;2023-11-18T01:32:53;4.00;99.90
16511;DHT22;8368;48.772;8.754;2023-11-18T01:35:18;4.00;99.90
16511;DHT22;8368;48.772;8.754;2023-11-18T01:37:45;4.00;99.90
16511;DHT22;8368;48.772;8.754;2023-11-18T01:40:10;4.00;99.90
16511;DHT22;8368;48.772;8.754;2023-11-18T01:42:44;4.00;99.90
16511;DHT22;8368;48.772;8.754;2023-11-18T01:45:12;4.00;99.90
16511;DHT22;8368;48.772;8.754;2023-11-18T01:47:38;4.10;99.90
16511;DHT22;8368;48.772;8.754;2023-11-18T01:50:06;4.10;99.90
16511;DHT22;8368;48.772;8.754;2023-11-18T01:52:33;4.10;99.90
16511;DHT22;8368;48.772;8.754;2023-11-18T01:54:59;4.00;99.90
16511;DHT22;8368;48.772;8.754;2023-11-18T01:57:25;4.00;99.90
16511;DHT22;8368;48.772;8.754;2023-11-18T01:59:53;4.00;99.90
16511;DHT22;8368;48.772;8.754;2023-11-18T02:02:19;3.90;99.90
16511;DHT22;8368;48.772;8.754;2023-11-18T02:04:46;3.80;99.90
16511;DHT22;8368;48.772;8.754;2023-11-18T02:07:13;3.90;99.90
16511;DHT22;8368;48.772;8.754;2023-11-18T02:09:43;3.90;99.90
16511;DHT22;8368;48.772;8.754;2023-11-18T02:12:38;3.90;99.90
16511;DHT22;8368;48.772;8.754;2023-11-18T02:15:06;3.90;99.90
16511;DHT22;8368;48.772;8.754;2023-11-18T02:17:38;3.90;99.90
16511;DHT22;8368;48.772;8.754;2023-11-18T02:20:08;3.90;99.90
16511;DHT22;8368;48.772;8.754;2023-11-18T02:22:42;3.90;99.90
16511;DHT22;8368;48.772;8.754;2023-11-18T02:25:09;3.90;99.90
16511;DHT22;8368;48.772;8.754;2023-11-18T02:27:36;3.90;99.90
16511;DHT22;8368;48.772;8.754;2023-11-18T02:30:01;3.80;99.90
16511;DHT22;8368;48.772;8.754;2023-11-18T02:33:07;3.80;99.90
16511;DHT22;8368;48.772;8.754;2023-11-18T02:35:44;3.60;99.90
16511;DHT22;8368;48.772;8.754;2023-11-18T02:38:16;3.50;99.90
16511;DHT22;8368;48.772;8.754;2023-11-18T02:40:43;3.40;99.90
16511;DHT22;8368;48.772;8.754;2023-11-18T02:43:10;3.40;99.90
16511;DHT22;8368;48.772;8.754;2023-11-18T02:45:37;3.30;99.90
16511;DHT22;8368;48.772;8.754;2023-11-18T02:48:06;3.30;99.90
16511;DHT22;8368;48.772;8.754;2023-11-18T02:50:32;3.20;99.90
16511;DHT22;8368;48.772;8.754;2023-11-18T02:52:58;3.20;99.90
16511;DHT22;8368;48.772;8.754;2023-11-18T02:55:24;3.10;99.90
16511;DHT22;8368;48.772;8.754;2023-11-18T02:57:50;3.00;99.90
16511;DHT22;8368;48.772;8.754;2023-11-18T03:00:17;3.00;99.90
16511;DHT22;8368;48.772;8.754;2023-11-18T03:02:47;3.00;99.90
16511;DHT22;8368;48.772;8.754;2023-11-18T03:05:13;2.90;99.90
16511;DHT22;8368;48.772;8.754;2023-11-18T03:07:41;2.90;99.90
16511;DHT22;8368;48.772;8.754;2023-11-18T03:10:07;2.80;99.90
16511;DHT22;8368;48.772;8.754;2023-11-18T03:12:42;2.80;99.90
16511;DHT22;8368;48.772;8.754;2023-11-18T03:15:08;2.80;99.90
16511;DHT22;8368;48.772;8.754;2023-11-18T03:17:37;2.70;99.90
16511;DHT22;8368;48.772;8.754;2023-11-18T03:20:04;2.70;99.90
16511;DHT22;8368;48.772;8.754;2023-11-18T03:22:33;2.60;99.90
16511;DHT22;8368;48.772;8.754;2023-11-18T03:24:59;2.70;99.90
16511;DHT22;8368;48.772;8.754;2023-11-18T03:27:25;2.60;99.90
16511;DHT22;8368;48.772;8.754;2023-11-18T03:29:51;2.60;99.90
16511;DHT22;8368;48.772;8.754;2023-11-18T03:32:16;2.60;99.90
16511;DHT22;8368;48.772;8.754;2023-11-18T03:34:42;2.60;99.90
16511;DHT22;8368;48.772;8.754;2023-11-18T03:37:09;2.70;99.90
16511;DHT22;8368;48.772;8.754;2023-11-18T03:39:35;2.70;99.90
16511;DHT22;8368;48.772;8.754;2023-11-18T03:42:00;2.70;99.90
16511;DHT22;8368;48.772;8.754;2023-11-18T03:44:26;2.70;99.90
16511;DHT22;8368;48.772;8.754;2023-11-18T03:46:51;2.70;99.90
16511;DHT22;8368;48.772;8.754;2023-11-18T03:49:17;2.80;99.90
16511;DHT22;8368;48.772;8.754;2023-11-18T03:51:43;2.80;99.90
16511;DHT22;8368;48.772;8.754;2023-11-18T03:54:08;2.90;99.90
16511;DHT22;8368;48.772;8.754;2023-11-18T03:56:34;2.90;99.90
16511;DHT22;8368;48.772;8.754;2023-11-18T03:59:00;2.90;99.90
16511;DHT22;8368;48.772;8.754;2023-11-18T04:01:26;3.00;99.90
16511;DHT22;8368;48.772;8.754;2023-11-18T04:03:54;3.00;99.90
16511;DHT22;8368;48.772;8.754;2023-11-18T04:06:21;3.00;99.90
16511;DHT22;8368;48.772;8.754;2023-11-18T04:08:47;3.10;99.90
16511;DHT22;8368;48.772;8.754;2023-11-18T04:11:14;3.10;99.90
16511;DHT22;8368;48.772;8.754;2023-11-18T04:13:42;3.00;99.90
16511;DHT22;8368;48.772;8.754;2023-11-18T04:18:41;3.00;99.90
16511;DHT22;8368;48.772;8.754;2023-11-18T04:21:08;3.00;99.90
16511;DHT22;8368;48.772;8.754;2023-11-18T04:23:38;3.00;99.90
16511;DHT22;8368;48.772;8.754;2023-11-18T04:26:04;3.00;99.90
16511;DHT22;8368;48.772;8.754;2023-11-18T04:28:31;3.00;99.90
16511;DHT22;8368;48.772;8.754;2023-11-18T04:30:56;3.00;99.90
16511;DHT22;8368;48.772;8.754;2023-11-18T04:33:22;3.00;99.90
16511;DHT22;8368;48.772;8.754;2023-11-18T04:35:50;3.00;99.90
16511;DHT22;8368;48.772;8.754;2023-11-18T04:38:16;3.00;99.90
16511;DHT22;8368;48.772;8.754;2023-11-18T04:40:42;3.00;99.90
16511;DHT22;8368;48.772;8.754;2023-11-18T04:43:10;2.90;99.90
16511;DHT22;8368;48.772;8.754;2023-11-18T04:45:36;2.90;99.90
16511;DHT22;8368;48.772;8.754;2023-11-18T04:48:03;2.80;99.90
16511;DHT22;8368;48.772;8.754;2023-11-18T04:50:29;2.80;99.90
16511;DHT22;8368;48.772;8.754;2023-11-18T04:52:55;2.70;99.90
16511;DHT22;8368;48.772;8.754;2023-11-18T04:55:21;2.70;99.90
16511;DHT22;8368;48.772;8.754;2023-11-18T04:57:47;2.60;99.90
16511;DHT22;8368;48.772;8.754;2023-11-18T05:00:13;2.60;99.90
16511;DHT22;8368;48.772;8.754;2023-11-18T05:02:42;2.60;99.90
16511;DHT22;8368;48.772;8.754;2023-11-18T05:05:08;2.50;99.90
16511;DHT22;8368;48.772;8.754;2023-11-18T05:07:34;2.50;99.90
16511;DHT22;8368;48.772;8.754;2023-11-18T05:10:01;2.50;99.90
16511;DHT22;8368;48.772;8.754;2023-11-18T05:12:27;2.40;99.90
16511;DHT22;8368;48.772;8.754;2023-11-18T05:14:55;2.50;99.90
16511;DHT22;8368;48.772;8.754;2023-11-18T05:17:22;2.50;99.90
16511;DHT22;8368;48.772;8.754;2023-11-18T05:19:47;2.50;99.90
16511;DHT22;8368;48.772;8.754;2023-11-18T05:22:13;2.50;99.90
16511;DHT22;8368;48.772;8.754;2023-11-18T05:24:39;2.40;99.90
16511;DHT22;8368;48.772;8.754;2023-11-18T05:27:04;2.40;99.90
16511;DHT22;8368;48.772;8.754;2023-11-18T05:29:31;2.40;99.90
16511;DHT22;8368;48.772;8.754;2023-11-18T05:31:57;2.30;99.90
16511;DHT22;8368;48.772;8.754;2023-11-18T05:34:23;2.30;99.90
16511;DHT22;8368;48.772;8.754;2023-11-18T05:36:49;2.30;99.90
16511;DHT22;8368;48.772;8.754;2023-11-18T05:39:22;2.30;99.90
16511;DHT22;8368;48.772;8.754;2023-11-18T05:41:50;2.30;99.90
16511;DHT22;8368;48.772;8.754;2023-11-18T05:44:17;2.30;99.90
16511;DHT22;8368;48.772;8.754;2023-11-18T05:46:45;2.30;99.90
16511;DHT22;8368;48.772;8.754;2023-11-18T05:49:12;2.40;99.90
16511;DHT22;8368;48.772;8.754;2023-11-18T05:51:39;2.40;99.90
16511;DHT22;8368;48.772;8.754;2023-11-18T05:54:06;2.40;99.90
16511;DHT22;8368;48.772;8.754;2023-11-18T05:56:32;2.40;99.90
16511;DHT22;8368;48.772;8.754;2023-11-18T05:58:58;2.40;99.90
16511;DHT22;8368;48.772;8.754;2023-11-18T06:01:24;2.40;99.90
16511;DHT22;8368;48.772;8.754;2023-11-18T06:03:53;2.40;99.90
16511;DHT22;8368;48.772;8.754;2023-11-18T06:06:18;2.40;99.90
16511;DHT22;8368;48.772;8.754;2023-11-18T06:08:45;2.30;99.90
16511;DHT22;8368;48.772;8.754;2023-11-18T06:11:13;2.30;99.90
16511;DHT22;8368;48.772;8.754;2023-11-18T06:13:40;2.30;99.90
16511;DHT22;8368;48.772;8.754;2023-11-18T06:16:09;2.30;99.90
16511;DHT22;8368;48.772;8.754;2023-11-18T06:18:34;2.30;99.90
16511;DHT22;8368;48.772;8.754;2023-11-18T06:21:01;2.20;99.90
16511;DHT22;8368;48.772;8.754;2023-11-18T06:23:27;2.20;99.90
16511;DHT22;8368;48.772;8.754;2023-11-18T06:25:52;2.20;99.90
16511;DHT22;8368;48.772;8.754;2023-11-18T06:28:18;2.30;99.90
16511;DHT22;8368;48.772;8.754;2023-11-18T06:30:44;2.30;99.90
16511;DHT22;8368;48.772;8.754;2023-11-18T06:33:09;2.40;99.90
16511;DHT22;8368;48.772;8.754;2023-11-18T06:35:37;2.50;99.90
16511;DHT22;8368;48.772;8.754;2023-11-18T06:38:02;2.50;99.90
16511;DHT22;8368;48.772;8.754;2023-11-18T06:40:28;2.50;99.90
16511;DHT22;8368;48.772;8.754;2023-11-18T06:42:53;2.60;99.90
16511;DHT22;8368;48.772;8.754;2023-11-18T06:45:27;2.60;99.90
16511;DHT22;8368;48.772;8.754;2023-11-18T06:47:52;2.60;99.90
16511;DHT22;8368;48.772;8.754;2023-11-18T06:50:19;2.70;99.90
16511;DHT22;8368;48.772;8.754;2023-11-18T06:52:49;2.80;99.90
16511;DHT22;8368;48.772;8.754;2023-11-18T06:55:16;2.80;99.90
16511;DHT22;8368;48.772;8.754;2023-11-18T06:57:42;3.00;99.90
16511;DHT22;8368;48.772;8.754;2023-11-18T07:00:10;3.10;99.90
16511;DHT22;8368;48.772;8.754;2023-11-18T07:02:36;3.20;99.90
16511;DHT22;8368;48.772;8.754;2023-11-18T07:05:01;3.20;99.90
16511;DHT22;8368;48.772;8.754;2023-11-18T07:07:27;3.30;99.90
16511;DHT22;8368;48.772;8.754;2023-11-18T07:09:52;3.30;99.90
16511;DHT22;8368;48.772;8.754;2023-11-18T07:12:18;3.30;99.90
16511;DHT22;8368;48.772;8.754;2023-11-18T07:14:47;3.40;99.90
16511;DHT22;8368;48.772;8.754;2023-11-18T07:17:13;3.40;99.90
16511;DHT22;8368;48.772;8.754;2023-11-18T07:19:38;3.40;99.90
16511;DHT22;8368;48.772;8.754;2023-11-18T07:22:05;3.40;99.90
16511;DHT22;8368;48.772;8.754;2023-11-18T07:24:32;3.40;99.90
16511;DHT22;8368;48.772;8.754;2023-11-18T07:26:57;3.40;99.90
16511;DHT22;8368;48.772;8.754;2023-11-18T07:29:25;3.40;99.90
16511;DHT22;8368;48.772;8.754;2023-11-18T07:31:55;3.50;99.90
16511;DHT22;8368;48.772;8.754;2023-11-18T07:34:20;3.50;99.90
16511;DHT22;8368;48.772;8.754;2023-11-18T07:36:47;3.50;99.90
16511;DHT22;8368;48.772;8.754;2023-11-18T07:39:13;3.60;99.90
16511;DHT22;8368;48.772;8.754;2023-11-18T07:41:49;3.60;99.90
16511;DHT22;8368;48.772;8.754;2023-11-18T07:44:14;3.60;99.90
16511;DHT22;8368;48.772;8.754;2023-11-18T07:46:41;3.70;99.90
16511;DHT22;8368;48.772;8.754;2023-11-18T07:49:08;3.80;99.90
16511;DHT22;8368;48.772;8.754;2023-11-18T07:51:34;3.80;99.90
16511;DHT22;8368;48.772;8.754;2023-11-18T07:54:00;3.80;99.90
16511;DHT22;8368;48.772;8.754;2023-11-18T07:56:25;3.80;99.90
16511;DHT22;8368;48.772;8.754;2023-11-18T07:58:52;3.80;99.90
16511;DHT22;8368;48.772;8.754;2023-11-18T08:01:19;3.90;99.90
16511;DHT22;8368;48.772;8.754;2023-11-18T08:03:46;3.90;99.90
16511;DHT22;8368;48.772;8.754;2023-11-18T08:06:13;3.90;99.90
16511;DHT22;8368;48.772;8.754;2023-11-18T08:08:38;4.00;99.90
16511;DHT22;8368;48.772;8.754;2023-11-18T08:11:05;4.00;99.90
16511;DHT22;8368;48.772;8.754;2023-11-18T08:13:31;4.10;99.90
16511;DHT22;8368;48.772;8.754;2023-11-18T08:15:56;4.10;99.90
16511;DHT22;8368;48.772;8.754;2023-11-18T08:18:23;4.10;99.90
16511;DHT22;8368;48.772;8.754;2023-11-18T08:20:49;4.30;99.90
16511;DHT22;8368;48.772;8.754;2023-11-18T08:23:15;4.20;99.90
16511;DHT22;8368;48.772;8.754;2023-11-18T08:25:41;4.20;99.90
16511;DHT22;8368;48.772;8.754;2023-11-18T08:28:07;4.30;99.90
16511;DHT22;8368;48.772;8.754;2023-11-18T08:30:37;4.30;99.90
16511;DHT22;8368;48.772;8.754;2023-11-18T08:33:03;4.30;99.90
16511;DHT22;8368;48.772;8.754;2023-11-18T08:35:35;4.30;99.90
16511;DHT22;8368;48.772;8.754;2023-11-18T08:38:00;4.40;99.90
16511;DHT22;8368;48.772;8.754;2023-11-18T08:40:26;4.40;99.90
16511;DHT22;8368;48.772;8.754;2023-11-18T08:42:53;4.40;99.90
16511;DHT22;8368;48.772;8.754;2023-11-18T08:45:28;4.50;99.90
16511;DHT22;8368;48.772;8.754;2023-11-18T08:47:59;4.60;99.90
16511;DHT22;8368;48.772;8.754;2023-11-18T08:50:27;4.60;99.90
16511;DHT22;8368;48.772;8.754;2023-11-18T08:52:55;4.70;99.90
16511;DHT22;8368;48.772;8.754;2023-11-18T08:55:27;4.70;99.90
16511;DHT22;8368;48.772;8.754;2023-11-18T08:58:10;4.70;99.90
16511;DHT22;8368;48.772;8.754;2023-11-18T09:00:48;4.80;99.90
16511;DHT22;8368;48.772;8.754;2023-11-18T09:03:19;4.90;99.90
16511;DHT22;8368;48.772;8.754;2023-11-18T09:06:01;4.90;99.90
16511;DHT22;8368;48.772;8.754;2023-11-18T09:08:43;5.00;99.90
16511;DHT22;8368;48.772;8.754;2023-11-18T09:11:10;5.10;99.90
16511;DHT22;8368;48.772;8.754;2023-11-18T09:13:37;5.00;99.90
16511;DHT22;8368;48.772;8.754;2023-11-18T09:16:05;5.10;99.90
16511;DHT22;8368;48.772;8.754;2023-11-18T09:18:35;5.10;99.90
16511;DHT22;8368;48.772;8.754;2023-11-18T09:21:01;5.10;99.90
16511;DHT22;8368;48.772;8.754;2023-11-18T09:23:29;5.20;99.90
16511;DHT22;8368;48.772;8.754;2023-11-18T09:25:57;5.20;99.90
16511;DHT22;8368;48.772;8.754;2023-11-18T09:28:24;5.20;99.90
16511;DHT22;8368;48.772;8.754;2023-11-18T09:30:50;5.20;99.90
16511;DHT22;8368;48.772;8.754;2023-11-18T09:33:20;5.20;99.90
16511;DHT22;8368;48.772;8.754;2023-11-18T09:36:02;5.40;99.90
16511;DHT22;8368;48.772;8.754;2023-11-18T09:38:35;5.50;99.90
16511;DHT22;8368;48.772;8.754;2023-11-18T09:41:05;5.60;99.90
16511;DHT22;8368;48.772;8.754;2023-11-18T09:43:37;5.70;99.90
16511;DHT22;8368;48.772;8.754;2023-11-18T09:46:28;5.70;99.90
16511;DHT22;8368;48.772;8.754;2023-11-18T09:49:11;5.80;99.90
16511;DHT22;8368;48.772;8.754;2023-11-18T09:51:41;6.00;99.90
16511;DHT22;8368;48.772;8.754;2023-11-18T09:54:25;6.00;99.90
16511;DHT22;8368;48.772;8.754;2023-11-18T09:57:07;6.20;99.90
16511;DHT22;8368;48.772;8.754;2023-11-18T10:02:48;6.20;99.90
16511;DHT22;8368;48.772;8.754;2023-11-18T10:05:16;6.20;99.90
16511;DHT22;8368;48.772;8.754;2023-11-18T10:07:46;6.30;99.90
16511;DHT22;8368;48.772;8.754;2023-11-18T10:10:15;6.40;99.90
16511;DHT22;8368;48.772;8.754;2023-11-18T10:12:49;6.40;99.90
16511;DHT22;8368;48.772;8.754;2023-11-18T10:15:22;6.50;99.90
16511;DHT22;8368;48.772;8.754;2023-11-18T10:17:49;6.50;99.90
16511;DHT22;8368;48.772;8.754;2023-11-18T10:20:48;6.50;99.90
16511;DHT22;8368;48.772;8.754;2023-11-18T10:23:21;6.60;99.90
16511;DHT22;8368;48.772;8.754;2023-11-18T10:28:27;6.60;99.90
16511;DHT22;8368;48.772;8.754;2023-11-18T10:30:57;6.60;99.90
16511;DHT22;8368;48.772;8.754;2023-11-18T10:33:41;6.70;99.90
16511;DHT22;8368;48.772;8.754;2023-11-18T10:36:20;6.80;99.90
16511;DHT22;8368;48.772;8.754;2023-11-18T10:38:50;6.80;99.90
16511;DHT22;8368;48.772;8.754;2023-11-18T10:41:18;6.80;99.90
16511;DHT22;8368;48.772;8.754;2023-11-18T10:43:44;6.90;99.90
16511;DHT22;8368;48.772;8.754;2023-11-18T10:46:11;7.00;99.90
16511;DHT22;8368;48.772;8.754;2023-11-18T10:48:50;7.00;99.90
16511;DHT22;8368;48.772;8.754;2023-11-18T10:51:17;7.00;99.90
16511;DHT22;8368;48.772;8.754;2023-11-18T10:53:47;7.00;99.90
16511;DHT22;8368;48.772;8.754;2023-11-18T10:56:24;7.10;99.90
16511;DHT22;8368;48.772;8.754;2023-11-18T10:59:06;7.00;99.90
16511;DHT22;8368;48.772;8.754;2023-11-18T11:01:36;7.10;99.90
16511;DHT22;8368;48.772;8.754;2023-11-18T11:04:10;7.10;99.90
16511;DHT22;8368;48.772;8.754;2023-11-18T11:06:44;7.10;99.90
16511;DHT22;8368;48.772;8.754;2023-11-18T11:09:21;7.10;99.90
16511;DHT22;8368;48.772;8.754;2023-11-18T11:11:54;6.90;99.90
16511;DHT22;8368;48.772;8.754;2023-11-18T11:14:22;6.80;99.90
16511;DHT22;8368;48.772;8.754;2023-11-18T11:17:02;6.90;99.90
16511;DHT22;8368;48.772;8.754;2023-11-18T11:22:24;6.80;99.90
16511;DHT22;8368;48.772;8.754;2023-11-18T11:25:16;6.80;99.90
16511;DHT22;8368;48.772;8.754;2023-11-18T11:28:04;6.80;99.90
16511;DHT22;8368;48.772;8.754;2023-11-18T11:30:49;6.80;99.90
16511;DHT22;8368;48.772;8.754;2023-11-18T11:33:29;6.80;99.90
16511;DHT22;8368;48.772;8.754;2023-11-18T11:36:29;6.80;99.90
16511;DHT22;8368;48.772;8.754;2023-11-18T11:38:53;6.90;99.90
16511;DHT22;8368;48.772;8.754;2023-11-18T11:41:21;6.90;99.90
16511;DHT22;8368;48.772;8.754;2023-11-18T11:43:52;7.00;99.90
16511;DHT22;8368;48.772;8.754;2023-11-18T11:46:25;7.00;99.90
16511;DHT22;8368;48.772;8.754;2023-11-18T11:49:00;6.90;99.90
16511;DHT22;8368;48.772;8.754;2023-11-18T11:51:33;7.00;99.90
16511;DHT22;8368;48.772;8.754;2023-11-18T11:54:11;6.90;99.90
16511;DHT22;8368;48.772;8.754;2023-11-18T11:56:47;6.80;99.90
16511;DHT22;8368;48.772;8.754;2023-11-18T11:59:34;6.80;99.90
16511;DHT22;8368;48.772;8.754;2023-11-18T12:02:02;6.80;99.90
16511;DHT22;8368;48.772;8.754;2023-11-18T12:04:34;6.80;99.90
16511;DHT22;8368;48.772;8.754;2023-11-18T12:07:04;6.80;99.90
16511;DHT22;8368;48.772;8.754;2023-11-18T12:09:31;6.90;99.90
16511;DHT22;8368;48.772;8.754;2023-11-18T12:12:03;6.90;99.90
16511;DHT22;8368;48.772;8.754;2023-11-18T12:14:30;6.80;99.90
16511;DHT22;8368;48.772;8.754;2023-11-18T12:17:07;6.80;99.90
16511;DHT22;8368;48.772;8.754;2023-11-18T12:19:35;6.90;99.90
16511;DHT22;8368;48.772;8.754;2023-11-18T12:22:12;6.80;99.90
16511;DHT22;8368;48.772;8.754;2023-11-18T12:27:41;6.80;99.90
16511;DHT22;8368;48.772;8.754;2023-11-18T12:32:59;6.80;99.90
16511;DHT22;8368;48.772;8.754;2023-11-18T12:35:30;6.80;99.90
16511;DHT22;8368;48.772;8.754;2023-11-18T12:40:55;6.80;99.90
16511;DHT22;8368;48.772;8.754;2023-11-18T12:46:47;6.60;99.90
16511;DHT22;8368;48.772;8.754;2023-11-18T12:49:16;6.40;99.90
16511;DHT22;8368;48.772;8.754;2023-11-18T12:51:45;6.30;99.90
16511;DHT22;8368;48.772;8.754;2023-11-18T12:54:11;6.30;99.90
16511;DHT22;8368;48.772;8.754;2023-11-18T12:56:38;6.20;99.90
16511;DHT22;8368;48.772;8.754;2023-11-18T12:59:04;6.10;99.90
16511;DHT22;8368;48.772;8.754;2023-11-18T13:01:33;6.20;99.90
16511;DHT22;8368;48.772;8.754;2023-11-18T13:04:04;6.20;99.90
16511;DHT22;8368;48.772;8.754;2023-11-18T13:06:30;6.20;99.90
16511;DHT22;8368;48.772;8.754;2023-11-18T13:08:55;6.20;99.90
16511;DHT22;8368;48.772;8.754;2023-11-18T13:11:24;6.20;99.90
16511;DHT22;8368;48.772;8.754;2023-11-18T13:13:53;6.10;99.90
16511;DHT22;8368;48.772;8.754;2023-11-18T13:16:19;6.10;99.90
16511;DHT22;8368;48.772;8.754;2023-11-18T13:18:45;6.20;99.90
16511;DHT22;8368;48.772;8.754;2023-11-18T13:21:18;6.10;99.90
16511;DHT22;8368;48.772;8.754;2023-11-18T13:23:48;6.10;99.90
16511;DHT22;8368;48.772;8.754;2023-11-18T13:26:15;6.20;99.90
16511;DHT22;8368;48.772;8.754;2023-11-18T13:28:41;6.10;99.90
16511;DHT22;8368;48.772;8.754;2023-11-18T13:31:09;6.10;99.90
16511;DHT22;8368;48.772;8.754;2023-11-18T13:33:39;6.10;99.90
16511;DHT22;8368;48.772;8.754;2023-11-18T13:36:06;6.10;99.90
16511;DHT22;8368;48.772;8.754;2023-11-18T13:38:32;6.10;99.90
16511;DHT22;8368;48.772;8.754;2023-11-18T13:40:57;6.10;99.90
16511;DHT22;8368;48.772;8.754;2023-11-18T13:43:24;6.10;99.90
16511;DHT22;8368;48.772;8.754;2023-11-18T13:45:53;6.10;99.90
16511;DHT22;8368;48.772;8.754;2023-11-18T13:48:18;6.20;99.90
16511;DHT22;8368;48.772;8.754;2023-11-18T13:50:44;6.30;99.90
16511;DHT22;8368;48.772;8.754;2023-11-18T13:53:10;6.30;99.90
16511;DHT22;8368;48.772;8.754;2023-11-18T13:55:36;6.30;99.90
16511;DHT22;8368;48.772;8.754;2023-11-18T13:58:05;6.30;99.90
16511;DHT22;8368;48.772;8.754;2023-11-18T14:00:31;6.30;99.90
16511;DHT22;8368;48.772;8.754;2023-11-18T14:02:58;6.20;99.90
16511;DHT22;8368;48.772;8.754;2023-11-18T14:05:24;6.10;99.90
16511;DHT22;8368;48.772;8.754;2023-11-18T14:07:58;6.10;99.90
16511;DHT22;8368;48.772;8.754;2023-11-18T14:10:34;6.00;99.90
16511;DHT22;8368;48.772;8.754;2023-11-18T14:13:06;6.10;99.90
16511;DHT22;8368;48.772;8.754;2023-11-18T14:15:37;6.00;99.90
16511;DHT22;8368;48.772;8.754;2023-11-18T14:18:03;6.00;99.90
16511;DHT22;8368;48.772;8.754;2023-11-18T14:20:29;5.90;99.90
16511;DHT22;8368;48.772;8.754;2023-11-18T14:22:57;5.90;99.90
16511;DHT22;8368;48.772;8.754;2023-11-18T14:25:23;6.00;99.90
16511;DHT22;8368;48.772;8.754;2023-11-18T14:27:49;6.00;99.90
16511;DHT22;8368;48.772;8.754;2023-11-18T14:30:15;5.90;99.90
16511;DHT22;8368;48.772;8.754;2023-11-18T14:32:42;5.80;99.90
16511;DHT22;8368;48.772;8.754;2023-11-18T14:35:07;5.90;99.90
16511;DHT22;8368;48.772;8.754;2023-11-18T14:37:38;5.90;99.90
16511;DHT22;8368;48.772;8.754;2023-11-18T14:40:10;5.90;99.90
16511;DHT22;8368;48.772;8.754;2023-11-18T14:42:38;5.90;99.90
16511;DHT22;8368;48.772;8.754;2023-11-18T14:45:04;5.90;99.90
16511;DHT22;8368;48.772;8.754;2023-11-18T14:47:32;5.90;99.90
16511;DHT22;8368;48.772;8.754;2023-11-18T14:49:57;5.90;99.90
16511;DHT22;8368;48.772;8.754;2023-11-18T14:52:23;5.90;99.90
16511;DHT22;8368;48.772;8.754;2023-11-18T14:54:48;5.90;99.90
16511;DHT22;8368;48.772;8.754;2023-11-18T14:57:14;5.90;99.90
16511;DHT22;8368;48.772;8.754;2023-11-18T14:59:41;5.90;99.90
16511;DHT22;8368;48.772;8.754;2023-11-18T15:02:07;5.80;99.90
16511;DHT22;8368;48.772;8.754;2023-11-18T15:04:33;5.80;99.90
16511;DHT22;8368;48.772;8.754;2023-11-18T15:06:59;5.90;99.90
16511;DHT22;8368;48.772;8.754;2023-11-18T15:09:24;5.90;99.90
16511;DHT22;8368;48.772;8.754;2023-11-18T15:11:50;5.80;99.90
16511;DHT22;8368;48.772;8.754;2023-11-18T15:14:18;5.80;99.90
16511;DHT22;8368;48.772;8.754;2023-11-18T15:16:44;5.80;99.90
16511;DHT22;8368;48.772;8.754;2023-11-18T15:19:12;5.80;99.90
16511;DHT22;8368;48.772;8.754;2023-11-18T15:21:37;5.80;99.90
16511;DHT22;8368;48.772;8.754;2023-11-18T15:24:04;5.80;99.90
16511;DHT22;8368;48.772;8.754;2023-11-18T15:26:29;5.80;99.90
16511;DHT22;8368;48.772;8.754;2023-11-18T15:28:58;5.70;99.90
16511;DHT22;8368;48.772;8.754;2023-11-18T15:31:24;5.70;99.90
16511;DHT22;8368;48.772;8.754;2023-11-18T15:33:50;5.70;99.90
16511;DHT22;8368;48.772;8.754;2023-11-18T15:36:16;5.70;99.90
16511;DHT22;8368;48.772;8.754;2023-11-18T15:38:41;5.70;99.90
16511;DHT22;8368;48.772;8.754;2023-11-18T15:41:08;5.70;99.90
16511;DHT22;8368;48.772;8.754;2023-11-18T15:43:36;5.70;99.90
16511;DHT22;8368;48.772;8.754;2023-11-18T15:46:02;5.70;99.90
16511;DHT22;8368;48.772;8.754;2023-11-18T15:48:31;5.70;99.90
16511;DHT22;8368;48.772;8.754;2023-11-18T15:50:57;5.70;99.90
16511;DHT22;8368;48.772;8.754;2023-11-18T15:53:24;5.70;99.90
16511;DHT22;8368;48.772;8.754;2023-11-18T15:55:50;5.70;99.90
16511;DHT22;8368;48.772;8.754;2023-11-18T15:58:15;5.70;99.90
16511;DHT22;8368;48.772;8.754;2023-11-18T16:00:44;5.60;99.90
16511;DHT22;8368;48.772;8.754;2023-11-18T16:03:09;5.60;99.90
16511;DHT22;8368;48.772;8.754;2023-11-18T16:05:35;5.60;99.90
16511;DHT22;8368;48.772;8.754;2023-11-18T16:08:01;5.70;99.90
16511;DHT22;8368;48.772;8.754;2023-11-18T16:10:27;5.70;99.90
16511;DHT22;8368;48.772;8.754;2023-11-18T16:12:57;5.70;99.90
16511;DHT22;8368;48.772;8.754;2023-11-18T16:15:27;5.60;99.90
16511;DHT22;8368;48.772;8.754;2023-11-18T16:17:54;5.60;99.90
16511;DHT22;8368;48.772;8.754;2023-11-18T16:20:21;5.60;99.90
16511;DHT22;8368;48.772;8.754;2023-11-18T16:22:49;5.60;99.90
16511;DHT22;8368;48.772;8.754;2023-11-18T16:25:20;5.60;99.90
16511;DHT22;8368;48.772;8.754;2023-11-18T16:27:52;5.60;99.90
16511;DHT22;8368;48.772;8.754;2023-11-18T16:30:19;5.60;99.90
16511;DHT22;8368;48.772;8.754;2023-11-18T16:32:55;5.70;99.90